Connaught, Ireland

12:58 PM IST on August 21, 2014 (GMT +0100)
Connaught | Change Station
CLOSE
Current Station
Airport
Location: Ireland West Airport Knock,
Elevation: 663 ft
Nearby Weather Stations

Elev 663 ft 53.91 °N, 8.81 °W | Updated 28 minutes ago

Mostly Cloudy
Mostly Cloudy
55 °F
Feels Like 55 °F
N
12
Wind Variable Wind from WSW

Today
High -- | Low -- °F
--% Chance of Precip.
Yesterday
High -- | Low -- °F
Precip. -- in
6:23 AM 8:51 PM
Waning Crescent, 15% visible
Pressure 29.83 in
Visibility 6.2 miles
Clouds Scattered Clouds 1000 ft
Scattered Clouds 1800 ft
Mostly Cloudy 4000 ft
Dew Point 54 °F
Humidity 94%
Rainfall 0.00 in
Snow Depth Not available.
UV 4 out of 12
Pollen Not available.
Air Quality Not available.
Flu Activity Not available.
METAR EIKN 211130Z 25010KT 9999 SCT010 SCT018CB BKN040 13/12 Q1010 NOSIG

More Conditions Fewer Conditions

Pressure 29.83 in
Visibility 6.2 miles
Clouds Scattered Clouds 1000 ft
Scattered Clouds 1800 ft
Mostly Cloudy 4000 ft
Dew Point 54 °F
Humidity 94%
Rainfall 0.00 in
Snow Depth Not available.
UV 4 out of 12
Pollen Not available.
Air Quality Not available.
Flu Activity Not available.
METAR EIKN 211130Z 25010KT 9999 SCT010 SCT018CB BKN040 13/12 Q1010 NOSIG

More Conditions Fewer Conditions

10-Day Weather Forecast

Almanac

Astronomy

Aug. 21, 2014 Rise Set
Actual Time 6:23 AM IST 8:51 PM IST
Civil Twilight 5:44 AM IST 9:30 PM IST
Nautical Twilight 4:54 AM IST 10:20 PM IST
Astronomical Twilight 3:53 AM IST 11:20 PM IST
Moon 2:26 AM IST 6:24 PM IST
Length of Visible Light 15h 46m
Length of Day
14h 28m
Tomorrow will be 4m 4s shorter.
Waning Crescent, 15% of the Moon is Illuminated
Today
Waning Crescent
Aug 25
New
Sep 2
First Quarter
Sep 8
Full
Sep 15
Last Quarter

Yesterday's Extremes

Country Highs Country Lows

Community

WunderPhotos

Upload Photos

1,745,864 photos uploaded!

Nearby

Snow Depth

Not available.

Earthquake Activity

City Distance Mag. Time & Date
No recent earthquake activity has been reported nearby.
Minimum magnitude displayed is 2.5.

Coastal Water Temperatures

Place Temperature
No Stations Reporting

Nearby Weather Stations